sensor_id;sensor_type;location;lat;lon;timestamp;pressure;altitude;pressure_sealevel;temperature;humidity
21838;BME280;11081;45.946;6.140;2022-10-03T00:01:16;95906.53;;;14.38;99.64
21838;BME280;11081;45.946;6.140;2022-10-03T00:03:56;95914.19;;;14.40;99.89
21838;BME280;11081;45.946;6.140;2022-10-03T00:06:41;95916.59;;;14.41;100.00
21838;BME280;11081;45.946;6.140;2022-10-03T00:09:25;95920.25;;;14.40;100.00
21838;BME280;11081;45.946;6.140;2022-10-03T00:12:04;95923.91;;;14.39;100.00
21838;BME280;11081;45.946;6.140;2022-10-03T00:14:43;95916.31;;;14.31;99.81
21838;BME280;11081;45.946;6.140;2022-10-03T00:17:17;95926.59;;;14.21;100.00
21838;BME280;11081;45.946;6.140;2022-10-03T00:19:53;95922.47;;;14.25;100.00
21838;BME280;11081;45.946;6.140;2022-10-03T00:22:32;95918.47;;;14.22;100.00
21838;BME280;11081;45.946;6.140;2022-10-03T00:25:16;95917.69;;;14.22;99.15
21838;BME280;11081;45.946;6.140;2022-10-03T00:27:50;95908.88;;;14.16;99.35
21838;BME280;11081;45.946;6.140;2022-10-03T00:30:23;95915.34;;;14.14;99.76
21838;BME280;11081;45.946;6.140;2022-10-03T00:33:06;95918.56;;;14.16;99.86
21838;BME280;11081;45.946;6.140;2022-10-03T00:35:57;95917.34;;;14.18;99.99
21838;BME280;11081;45.946;6.140;2022-10-03T00:38:58;95915.28;;;14.20;100.00
21838;BME280;11081;45.946;6.140;2022-10-03T00:41:48;95915.13;;;14.03;100.00
21838;BME280;11081;45.946;6.140;2022-10-03T00:47:57;95913.97;;;13.99;100.00
21838;BME280;11081;45.946;6.140;2022-10-03T00:50:48;95909.41;;;14.07;100.00
21838;BME280;11081;45.946;6.140;2022-10-03T00:53:29;95905.75;;;14.08;100.00
21838;BME280;11081;45.946;6.140;2022-10-03T00:56:20;95913.88;;;14.06;100.00
21838;BME280;11081;45.946;6.140;2022-10-03T00:59:07;95910.44;;;14.06;100.00
21838;BME280;11081;45.946;6.140;2022-10-03T01:01:43;95916.81;;;13.98;100.00
21838;BME280;11081;45.946;6.140;2022-10-03T01:04:26;95908.22;;;13.72;100.00
21838;BME280;11081;45.946;6.140;2022-10-03T01:07:08;95915.16;;;13.67;100.00
21838;BME280;11081;45.946;6.140;2022-10-03T01:09:54;95906.28;;;13.68;100.00
21838;BME280;11081;45.946;6.140;2022-10-03T01:12:43;95907.81;;;13.76;100.00
21838;BME280;11081;45.946;6.140;2022-10-03T01:15:24;95908.28;;;13.84;100.00
21838;BME280;11081;45.946;6.140;2022-10-03T01:18:14;95911.63;;;13.91;100.00
21838;BME280;11081;45.946;6.140;2022-10-03T01:20:52;95904.56;;;13.92;100.00
21838;BME280;11081;45.946;6.140;2022-10-03T01:26:45;95905.81;;;13.89;99.91
21838;BME280;11081;45.946;6.140;2022-10-03T01:29:21;95911.63;;;13.91;100.00
21838;BME280;11081;45.946;6.140;2022-10-03T01:32:16;95916.31;;;13.89;100.00
21838;BME280;11081;45.946;6.140;2022-10-03T01:34:56;95906.81;;;13.88;100.00
21838;BME280;11081;45.946;6.140;2022-10-03T01:37:31;95906.38;;;13.91;100.00
21838;BME280;11081;45.946;6.140;2022-10-03T01:40:06;95910.47;;;13.87;100.00
21838;BME280;11081;45.946;6.140;2022-10-03T01:42:44;95910.47;;;13.87;100.00
21838;BME280;11081;45.946;6.140;2022-10-03T01:45:28;95911.72;;;13.85;100.00
21838;BME280;11081;45.946;6.140;2022-10-03T01:48:01;95907.06;;;13.87;100.00
21838;BME280;11081;45.946;6.140;2022-10-03T01:50:35;95906.25;;;13.86;100.00
21838;BME280;11081;45.946;6.140;2022-10-03T01:53:10;95908.88;;;13.86;100.00
21838;BME280;11081;45.946;6.140;2022-10-03T01:55:49;95908.88;;;13.86;100.00
21838;BME280;11081;45.946;6.140;2022-10-03T01:58:24;95898.94;;;13.88;100.00
21838;BME280;11081;45.946;6.140;2022-10-03T02:01:03;95906.03;;;13.88;100.00
21838;BME280;11081;45.946;6.140;2022-10-03T02:03:36;95889.47;;;13.87;100.00
21838;BME280;11081;45.946;6.140;2022-10-03T02:06:19;95902.38;;;13.89;100.00
21838;BME280;11081;45.946;6.140;2022-10-03T02:08:54;95903.19;;;13.89;100.00
21838;BME280;11081;45.946;6.140;2022-10-03T02:11:30;95901.00;;;13.86;100.00
21838;BME280;11081;45.946;6.140;2022-10-03T02:14:11;95900.88;;;13.81;100.00
21838;BME280;11081;45.946;6.140;2022-10-03T02:16:52;95892.06;;;13.76;100.00
21838;BME280;11081;45.946;6.140;2022-10-03T02:19:26;95892.44;;;13.79;100.00
21838;BME280;11081;45.946;6.140;2022-10-03T02:21:56;95900.31;;;13.79;100.00
21838;BME280;11081;45.946;6.140;2022-10-03T02:24:40;95900.75;;;13.76;99.86
21838;BME280;11081;45.946;6.140;2022-10-03T02:27:29;95894.31;;;13.72;99.18
21838;BME280;11081;45.946;6.140;2022-10-03T02:30:10;95897.25;;;13.64;100.00
21838;BME280;11081;45.946;6.140;2022-10-03T02:36:20;95887.44;;;13.59;99.37
21838;BME280;11081;45.946;6.140;2022-10-03T02:42:30;95893.47;;;13.60;99.33
21838;BME280;11081;45.946;6.140;2022-10-03T02:45:17;95890.50;;;13.56;99.32
21838;BME280;11081;45.946;6.140;2022-10-03T02:48:06;95887.44;;;13.59;99.36
21838;BME280;11081;45.946;6.140;2022-10-03T02:51:13;95881.38;;;13.59;100.00
21838;BME280;11081;45.946;6.140;2022-10-03T03:00:04;95878.97;;;13.57;99.73
21838;BME280;11081;45.946;6.140;2022-10-03T03:02:52;95885.47;;;13.55;99.78
21838;BME280;11081;45.946;6.140;2022-10-03T03:09:19;95883.72;;;13.30;100.00
21838;BME280;11081;45.946;6.140;2022-10-03T03:12:14;95880.50;;;13.28;100.00
21838;BME280;11081;45.946;6.140;2022-10-03T03:17:46;95877.75;;;13.23;100.00
21838;BME280;11081;45.946;6.140;2022-10-03T03:20:35;95890.56;;;13.31;99.23
21838;BME280;11081;45.946;6.140;2022-10-03T03:23:27;95878.47;;;13.30;99.33
21838;BME280;11081;45.946;6.140;2022-10-03T03:26:25;95881.97;;;13.24;98.95
21838;BME280;11081;45.946;6.140;2022-10-03T03:29:04;95882.56;;;13.26;100.00
21838;BME280;11081;45.946;6.140;2022-10-03T03:31:42;95878.88;;;13.34;99.09
21838;BME280;11081;45.946;6.140;2022-10-03T03:34:17;95875.63;;;13.32;98.46
21838;BME280;11081;45.946;6.140;2022-10-03T03:36:52;95876.88;;;13.29;98.52
21838;BME280;11081;45.946;6.140;2022-10-03T03:42:31;95866.84;;;13.26;99.30
21838;BME280;11081;45.946;6.140;2022-10-03T03:45:24;95864.34;;;13.31;98.76
21838;BME280;11081;45.946;6.140;2022-10-03T03:48:13;95865.38;;;13.30;98.63
21838;BME280;11081;45.946;6.140;2022-10-03T03:50:54;95858.53;;;13.29;99.09
21838;BME280;11081;45.946;6.140;2022-10-03T03:53:48;95850.22;;;13.32;98.93
21838;BME280;11081;45.946;6.140;2022-10-03T03:56:29;95849.50;;;13.25;99.23
21838;BME280;11081;45.946;6.140;2022-10-03T03:59:12;95853.94;;;13.25;98.91
21838;BME280;11081;45.946;6.140;2022-10-03T04:02:03;95852.00;;;13.20;99.36
21838;BME280;11081;45.946;6.140;2022-10-03T04:04:46;95847.59;;;13.14;99.44
21838;BME280;11081;45.946;6.140;2022-10-03T04:07:31;95847.03;;;13.12;99.12
21838;BME280;11081;45.946;6.140;2022-10-03T04:10:17;95846.41;;;13.10;96.82
21838;BME280;11081;45.946;6.140;2022-10-03T04:13:07;95848.31;;;13.03;97.18
21838;BME280;11081;45.946;6.140;2022-10-03T04:16:03;95840.88;;;13.00;97.62
21838;BME280;11081;45.946;6.140;2022-10-03T04:18:52;95847.28;;;13.04;97.89
21838;BME280;11081;45.946;6.140;2022-10-03T04:21:38;95847.88;;;13.06;96.94
21838;BME280;11081;45.946;6.140;2022-10-03T04:24:22;95847.66;;;13.07;97.31
21838;BME280;11081;45.946;6.140;2022-10-03T04:27:09;95845.38;;;13.11;97.14
21838;BME280;11081;45.946;6.140;2022-10-03T04:29:45;95840.38;;;13.09;97.61
21838;BME280;11081;45.946;6.140;2022-10-03T04:32:37;95839.66;;;13.02;97.61
21838;BME280;11081;45.946;6.140;2022-10-03T04:35:31;95829.97;;;13.03;97.97
21838;BME280;11081;45.946;6.140;2022-10-03T04:38:07;95828.38;;;13.02;97.73
21838;BME280;11081;45.946;6.140;2022-10-03T04:40:44;95835.66;;;13.00;97.94
21838;BME280;11081;45.946;6.140;2022-10-03T04:43:27;95834.13;;;12.92;98.02
21838;BME280;11081;45.946;6.140;2022-10-03T04:46:13;95825.28;;;12.87;97.75
21838;BME280;11081;45.946;6.140;2022-10-03T04:49:02;95825.75;;;12.83;97.87
21838;BME280;11081;45.946;6.140;2022-10-03T04:51:42;95818.03;;;12.89;97.48
21838;BME280;11081;45.946;6.140;2022-10-03T04:54:22;95818.47;;;12.86;97.85
21838;BME280;11081;45.946;6.140;2022-10-03T04:56:58;95813.22;;;12.86;97.99
21838;BME280;11081;45.946;6.140;2022-10-03T04:59:49;95814.53;;;12.76;98.23
21838;BME280;11081;45.946;6.140;2022-10-03T05:02:30;95817.75;;;12.78;98.40
21838;BME280;11081;45.946;6.140;2022-10-03T05:05:22;95813.88;;;12.81;98.57
21838;BME280;11081;45.946;6.140;2022-10-03T05:07:59;95807.63;;;12.82;98.51
21838;BME280;11081;45.946;6.140;2022-10-03T05:10:43;95806.38;;;12.85;98.03
21838;BME280;11081;45.946;6.140;2022-10-03T05:13:21;95810.47;;;12.80;98.12
21838;BME280;11081;45.946;6.140;2022-10-03T05:16:00;95806.81;;;12.81;98.37
21838;BME280;11081;45.946;6.140;2022-10-03T05:18:39;95810.03;;;12.83;98.04
21838;BME280;11081;45.946;6.140;2022-10-03T05:21:12;95810.38;;;12.87;98.14
21838;BME280;11081;45.946;6.140;2022-10-03T05:23:51;95804.34;;;12.87;98.21
21838;BME280;11081;45.946;6.140;2022-10-03T05:26:38;95807.19;;;12.85;97.83
21838;BME280;11081;45.946;6.140;2022-10-03T05:29:17;95806.38;;;12.85;98.12
21838;BME280;11081;45.946;6.140;2022-10-03T05:31:55;95804.34;;;12.87;98.08
21838;BME280;11081;45.946;6.140;2022-10-03T05:34:36;95804.78;;;12.83;98.04
21838;BME280;11081;45.946;6.140;2022-10-03T05:37:33;95806.25;;;12.79;97.89
21838;BME280;11081;45.946;6.140;2022-10-03T05:40:13;95806.47;;;12.78;98.26
21838;BME280;11081;45.946;6.140;2022-10-03T05:42:59;95803.25;;;12.76;98.29
21838;BME280;11081;45.946;6.140;2022-10-03T05:45:34;95800.88;;;12.74;98.32
21838;BME280;11081;45.946;6.140;2022-10-03T05:48:12;95805.66;;;12.77;98.84
21838;BME280;11081;45.946;6.140;2022-10-03T05:51:02;95810.47;;;12.80;98.49
21838;BME280;11081;45.946;6.140;2022-10-03T05:54:22;95813.06;;;12.80;98.46
21838;BME280;11081;45.946;6.140;2022-10-03T05:57:14;95812.06;;;12.81;98.58
21838;BME280;11081;45.946;6.140;2022-10-03T06:00:01;95807.97;;;12.86;98.94
21838;BME280;11081;45.946;6.140;2022-10-03T06:06:15;95808.56;;;12.88;100.00
21838;BME280;11081;45.946;6.140;2022-10-03T06:09:19;95814.81;;;12.87;100.00
21838;BME280;11081;45.946;6.140;2022-10-03T06:12:05;95811.75;;;12.90;100.00
21838;BME280;11081;45.946;6.140;2022-10-03T06:15:03;95817.59;;;12.92;100.00
21838;BME280;11081;45.946;6.140;2022-10-03T06:17:54;95815.41;;;12.70;99.75
21838;BME280;11081;45.946;6.140;2022-10-03T06:20:56;95817.00;;;12.71;99.52
21838;BME280;11081;45.946;6.140;2022-10-03T06:23:45;95820.00;;;12.75;99.48
21838;BME280;11081;45.946;6.140;2022-10-03T06:26:49;95827.78;;;12.81;99.51
21838;BME280;11081;45.946;6.140;2022-10-03T06:30:02;95824.28;;;12.88;99.11
21838;BME280;11081;45.946;6.140;2022-10-03T06:35:59;95838.53;;;13.10;98.53
21838;BME280;11081;45.946;6.140;2022-10-03T06:38:51;95835.94;;;13.10;98.59
21838;BME280;11081;45.946;6.140;2022-10-03T06:42:21;95839.91;;;13.19;98.26
21838;BME280;11081;45.946;6.140;2022-10-03T06:45:18;95836.25;;;13.20;98.51
21838;BME280;11081;45.946;6.140;2022-10-03T06:48:08;95849.94;;;13.22;98.40
21838;BME280;11081;45.946;6.140;2022-10-03T06:50:52;95846.75;;;13.20;98.92
21838;BME280;11081;45.946;6.140;2022-10-03T06:53:42;95855.63;;;13.19;99.66
21838;BME280;11081;45.946;6.140;2022-10-03T06:56:44;95853.63;;;13.15;100.00
21838;BME280;11081;45.946;6.140;2022-10-03T06:59:42;95855.19;;;13.22;100.00
21838;BME280;11081;45.946;6.140;2022-10-03T07:02:28;95864.50;;;13.36;99.59
21838;BME280;11081;45.946;6.140;2022-10-03T07:11:45;95867.78;;;13.80;97.61
21838;BME280;11081;45.946;6.140;2022-10-03T07:17:28;95866.09;;;13.86;97.35
21838;BME280;11081;45.946;6.140;2022-10-03T07:20:25;95861.91;;;13.96;97.65
21838;BME280;11081;45.946;6.140;2022-10-03T07:23:19;95864.44;;;14.15;96.23
21838;BME280;11081;45.946;6.140;2022-10-03T07:26:28;95866.31;;;14.26;94.92
21838;BME280;11081;45.946;6.140;2022-10-03T07:29:12;95861.75;;;14.33;94.99
21838;BME280;11081;45.946;6.140;2022-10-03T07:31:56;95866.13;;;14.39;94.71
21838;BME280;11081;45.946;6.140;2022-10-03T07:34:50;95868.28;;;14.42;93.04
21838;BME280;11081;45.946;6.140;2022-10-03T07:37:45;95871.06;;;14.47;92.74
21838;BME280;11081;45.946;6.140;2022-10-03T07:40:52;95874.16;;;14.44;92.87
21838;BME280;11081;45.946;6.140;2022-10-03T07:43:43;95873.69;;;14.47;92.35
21838;BME280;11081;45.946;6.140;2022-10-03T07:46:53;95870.50;;;14.45;91.57
21838;BME280;11081;45.946;6.140;2022-10-03T07:49:45;95867.06;;;14.56;91.26
21838;BME280;11081;45.946;6.140;2022-10-03T07:52:37;95870.16;;;14.53;90.98
21838;BME280;11081;45.946;6.140;2022-10-03T07:55:43;95871.44;;;14.62;90.18
21838;BME280;11081;45.946;6.140;2022-10-03T07:58:32;95867.78;;;14.63;90.46
21838;BME280;11081;45.946;6.140;2022-10-03T08:01:30;95872.56;;;14.67;91.53
21838;BME280;11081;45.946;6.140;2022-10-03T08:04:39;95861.47;;;14.76;90.39
21838;BME280;11081;45.946;6.140;2022-10-03T08:07:31;95868.81;;;14.86;90.61
21838;BME280;11081;45.946;6.140;2022-10-03T08:10:38;95873.03;;;14.87;89.80
21838;BME280;11081;45.946;6.140;2022-10-03T08:13:25;95871.19;;;14.76;91.07
21838;BME280;11081;45.946;6.140;2022-10-03T08:16:09;95873.94;;;14.81;91.73
21838;BME280;11081;45.946;6.140;2022-10-03T08:19:14;95873.50;;;14.84;91.14
21838;BME280;11081;45.946;6.140;2022-10-03T08:21:55;95873.94;;;14.81;90.49
21838;BME280;11081;45.946;6.140;2022-10-03T08:27:56;95881.47;;;14.66;91.93
21838;BME280;11081;45.946;6.140;2022-10-03T08:30:38;95887.31;;;14.68;92.11
21838;BME280;11081;45.946;6.140;2022-10-03T08:33:27;95881.13;;;14.74;91.79
21838;BME280;11081;45.946;6.140;2022-10-03T08:36:29;95873.69;;;14.94;91.09
21838;BME280;11081;45.946;6.140;2022-10-03T08:39:12;95880.78;;;15.05;91.34
21838;BME280;11081;45.946;6.140;2022-10-03T08:42:11;95882.03;;;15.14;91.20
21838;BME280;11081;45.946;6.140;2022-10-03T08:51:55;95876.00;;;15.02;93.01
21838;BME280;11081;45.946;6.140;2022-10-03T08:57:40;95871.75;;;15.24;90.55
21838;BME280;11081;45.946;6.140;2022-10-03T09:00:15;95872.78;;;15.23;91.67
21838;BME280;11081;45.946;6.140;2022-10-03T09:06:28;95872.06;;;15.16;92.41
21838;BME280;11081;45.946;6.140;2022-10-03T09:09:25;95877.22;;;15.23;91.54
21838;BME280;11081;45.946;6.140;2022-10-03T09:15:17;95873.63;;;15.41;91.13
21838;BME280;11081;45.946;6.140;2022-10-03T09:18:27;95869.25;;;15.58;90.02
21838;BME280;11081;45.946;6.140;2022-10-03T09:21:34;95866.47;;;15.76;88.17
21838;BME280;11081;45.946;6.140;2022-10-03T09:27:32;95855.47;;;15.79;88.98
21838;BME280;11081;45.946;6.140;2022-10-03T09:33:23;95855.97;;;15.93;88.23
21838;BME280;11081;45.946;6.140;2022-10-03T09:39:17;95852.81;;;16.08;89.36
21838;BME280;11081;45.946;6.140;2022-10-03T09:42:28;95846.13;;;16.17;88.28
21838;BME280;11081;45.946;6.140;2022-10-03T09:45:21;95836.88;;;16.31;87.64
21838;BME280;11081;45.946;6.140;2022-10-03T09:48:14;95840.38;;;16.37;87.92
21838;BME280;11081;45.946;6.140;2022-10-03T09:51:05;95834.94;;;16.43;89.33
21838;BME280;11081;45.946;6.140;2022-10-03T09:54:12;95828.25;;;16.53;87.73
21838;BME280;11081;45.946;6.140;2022-10-03T10:06:21;95822.34;;;16.45;90.41
21838;BME280;11081;45.946;6.140;2022-10-03T10:09:36;95835.34;;;16.35;92.37
21838;BME280;11081;45.946;6.140;2022-10-03T10:12:25;95838.63;;;16.42;91.09
21838;BME280;11081;45.946;6.140;2022-10-03T10:15:17;95831.44;;;16.55;90.26
21838;BME280;11081;45.946;6.140;2022-10-03T10:18:26;95832.38;;;16.65;91.02
21838;BME280;11081;45.946;6.140;2022-10-03T10:21:28;95821.94;;;16.87;87.56
21838;BME280;11081;45.946;6.140;2022-10-03T10:24:28;95822.75;;;17.10;87.59
21838;BME280;11081;45.946;6.140;2022-10-03T10:27:41;95828.75;;;17.27;87.33
21838;BME280;11081;45.946;6.140;2022-10-03T10:30:20;95823.31;;;17.33;86.48
21838;BME280;11081;45.946;6.140;2022-10-03T10:33:20;95830.50;;;17.38;83.87
21838;BME280;11081;45.946;6.140;2022-10-03T10:36:34;95824.06;;;17.29;84.39
21838;BME280;11081;45.946;6.140;2022-10-03T10:39:39;95825.25;;;17.43;84.81
21838;BME280;11081;45.946;6.140;2022-10-03T10:42:52;95821.75;;;17.59;85.39
21838;BME280;11081;45.946;6.140;2022-10-03T10:45:42;95832.06;;;17.83;85.20
21838;BME280;11081;45.946;6.140;2022-10-03T10:51:51;95818.22;;;17.71;82.61
21838;BME280;11081;45.946;6.140;2022-10-03T10:54:48;95821.75;;;17.59;84.13
21838;BME280;11081;45.946;6.140;2022-10-03T10:57:28;95821.75;;;17.59;84.97
21838;BME280;11081;45.946;6.140;2022-10-03T11:00:20;95826.34;;;17.47;83.48
21838;BME280;11081;45.946;6.140;2022-10-03T11:06:49;95819.69;;;17.18;87.28
21838;BME280;11081;45.946;6.140;2022-10-03T11:09:43;95819.34;;;17.31;87.04
21838;BME280;11081;45.946;6.140;2022-10-03T11:13:14;95818.19;;;17.27;84.98
21838;BME280;11081;45.946;6.140;2022-10-03T11:19:36;95814.88;;;17.58;83.11
21838;BME280;11081;45.946;6.140;2022-10-03T11:22:46;95817.88;;;17.67;82.28
21838;BME280;11081;45.946;6.140;2022-10-03T11:26:13;95820.16;;;17.58;85.52
21838;BME280;11081;45.946;6.140;2022-10-03T11:32:23;95818.22;;;17.71;84.24
21838;BME280;11081;45.946;6.140;2022-10-03T11:35:27;95806.50;;;17.66;83.94
21838;BME280;11081;45.946;6.140;2022-10-03T11:38:05;95814.56;;;17.77;82.72
21838;BME280;11081;45.946;6.140;2022-10-03T11:40:48;95820.09;;;18.02;82.68
21838;BME280;11081;45.946;6.140;2022-10-03T11:46:24;95820.00;;;17.92;81.51
21838;BME280;11081;45.946;6.140;2022-10-03T11:49:01;95817.47;;;18.02;81.18
21838;BME280;11081;45.946;6.140;2022-10-03T11:51:39;95817.59;;;18.17;80.62
21838;BME280;11081;45.946;6.140;2022-10-03T11:54:20;95810.06;;;18.04;80.29
21838;BME280;11081;45.946;6.140;2022-10-03T11:56:59;95811.69;;;18.10;80.59
21838;BME280;11081;45.946;6.140;2022-10-03T11:59:33;95814.06;;;18.39;80.66
21838;BME280;11081;45.946;6.140;2022-10-03T12:02:11;95796.63;;;18.38;78.13
21838;BME280;11081;45.946;6.140;2022-10-03T12:04:56;95802.31;;;18.24;79.72
21838;BME280;11081;45.946;6.140;2022-10-03T12:07:43;95800.16;;;18.16;80.19
21838;BME280;11081;45.946;6.140;2022-10-03T12:10:46;95805.94;;;18.13;80.53
21838;BME280;11081;45.946;6.140;2022-10-03T12:13:21;95803.78;;;18.10;79.84
21838;BME280;11081;45.946;6.140;2022-10-03T12:15:50;95803.88;;;18.20;80.95
21838;BME280;11081;45.946;6.140;2022-10-03T12:18:26;95804.16;;;17.92;79.51
21838;BME280;11081;45.946;6.140;2022-10-03T12:21:04;95804.09;;;17.87;80.26
21838;BME280;11081;45.946;6.140;2022-10-03T12:23:56;95808.16;;;17.94;80.95
21838;BME280;11081;45.946;6.140;2022-10-03T12:26:42;95809.03;;;18.05;80.96
21838;BME280;11081;45.946;6.140;2022-10-03T12:29:15;95813.41;;;18.21;80.09
21838;BME280;11081;45.946;6.140;2022-10-03T12:31:55;95804.19;;;18.29;79.94
21838;BME280;11081;45.946;6.140;2022-10-03T12:34:37;95803.50;;;18.39;78.89
21838;BME280;11081;45.946;6.140;2022-10-03T12:37:31;95793.63;;;18.29;77.98
21838;BME280;11081;45.946;6.140;2022-10-03T12:40:04;95800.22;;;18.26;80.16
21838;BME280;11081;45.946;6.140;2022-10-03T12:42:44;95790.34;;;18.49;80.97
21838;BME280;11081;45.946;6.140;2022-10-03T12:45:22;95791.28;;;18.65;81.35
21838;BME280;11081;45.946;6.140;2022-10-03T12:48:00;95793.69;;;18.71;79.29
21838;BME280;11081;45.946;6.140;2022-10-03T12:50:45;95791.63;;;18.78;78.06
21838;BME280;11081;45.946;6.140;2022-10-03T12:53:29;95783.19;;;18.86;76.76
21838;BME280;11081;45.946;6.140;2022-10-03T12:56:04;95785.81;;;18.81;77.97
21838;BME280;11081;45.946;6.140;2022-10-03T12:58:44;95776.16;;;18.60;78.67
21838;BME280;11081;45.946;6.140;2022-10-03T13:01:22;95778.78;;;18.60;79.70
21838;BME280;11081;45.946;6.140;2022-10-03T13:03:54;95776.19;;;18.65;79.31
21838;BME280;11081;45.946;6.140;2022-10-03T13:06:41;95775.69;;;18.68;77.05
21838;BME280;11081;45.946;6.140;2022-10-03T13:09:47;95768.91;;;18.87;76.63
21838;BME280;11081;45.946;6.140;2022-10-03T13:12:27;95775.25;;;18.81;77.57
21838;BME280;11081;45.946;6.140;2022-10-03T13:18:14;95763.94;;;18.54;77.81
21838;BME280;11081;45.946;6.140;2022-10-03T13:20:53;95758.81;;;18.74;78.46
21838;BME280;11081;45.946;6.140;2022-10-03T13:23:34;95767.38;;;18.97;76.65
21838;BME280;11081;45.946;6.140;2022-10-03T13:26:12;95768.50;;;19.11;75.14
21838;BME280;11081;45.946;6.140;2022-10-03T13:29:15;95779.69;;;19.28;74.00
21838;BME280;11081;45.946;6.140;2022-10-03T13:31:55;95768.56;;;19.31;73.93
21838;BME280;11081;45.946;6.140;2022-10-03T13:34:29;95767.03;;;19.40;74.25
21838;BME280;11081;45.946;6.140;2022-10-03T13:37:03;95766.56;;;19.64;73.80
21838;BME280;11081;45.946;6.140;2022-10-03T13:39:43;95767.66;;;19.83;73.28
21838;BME280;11081;45.946;6.140;2022-10-03T13:42:17;95779.84;;;19.84;73.52
21838;BME280;11081;45.946;6.140;2022-10-03T13:44:50;95772.94;;;19.78;72.19
21838;BME280;11081;45.946;6.140;2022-10-03T13:47:41;95772.44;;;19.81;73.50
21838;BME280;11081;45.946;6.140;2022-10-03T13:50:15;95763.97;;;19.79;73.01
21838;BME280;11081;45.946;6.140;2022-10-03T13:52:49;95769.25;;;19.89;72.32
21838;BME280;11081;45.946;6.140;2022-10-03T13:55:36;95771.38;;;19.87;72.25
21838;BME280;11081;45.946;6.140;2022-10-03T13:58:23;95772.44;;;20.12;71.89
21838;BME280;11081;45.946;6.140;2022-10-03T14:01:09;95772.44;;;20.32;73.50
21838;BME280;11081;45.946;6.140;2022-10-03T14:03:47;95774.03;;;20.18;72.55
21838;BME280;11081;45.946;6.140;2022-10-03T14:06:26;95754.94;;;20.31;70.96
21838;BME280;11081;45.946;6.140;2022-10-03T14:09:34;95752.81;;;20.33;68.39
21838;BME280;11081;45.946;6.140;2022-10-03T14:12:13;95749.41;;;20.48;71.80
21838;BME280;11081;45.946;6.140;2022-10-03T14:15:23;95751.16;;;20.78;68.60
21838;BME280;11081;45.946;6.140;2022-10-03T14:17:59;95747.72;;;20.87;69.99
21838;BME280;11081;45.946;6.140;2022-10-03T14:20:37;95747.91;;;21.01;68.32
21838;BME280;11081;45.946;6.140;2022-10-03T14:23:17;95747.88;;;21.11;69.34
21838;BME280;11081;45.946;6.140;2022-10-03T14:25:50;95742.06;;;21.04;68.02
21838;BME280;11081;45.946;6.140;2022-10-03T14:28:26;95741.13;;;20.69;66.87
21838;BME280;11081;45.946;6.140;2022-10-03T14:31:04;95734.28;;;20.48;68.84
21838;BME280;11081;45.946;6.140;2022-10-03T14:33:41;95735.84;;;20.49;69.17
21838;BME280;11081;45.946;6.140;2022-10-03T14:36:21;95732.97;;;20.20;69.85
21838;BME280;11081;45.946;6.140;2022-10-03T14:39:01;95732.16;;;20.09;70.16
21838;BME280;11081;45.946;6.140;2022-10-03T14:41:44;95727.88;;;20.54;69.92
21838;BME280;11081;45.946;6.140;2022-10-03T14:44:17;95735.31;;;20.52;68.58
21838;BME280;11081;45.946;6.140;2022-10-03T14:46:51;95724.75;;;20.42;70.27
21838;BME280;11081;45.946;6.140;2022-10-03T14:49:24;95721.03;;;20.43;69.48
21838;BME280;11081;45.946;6.140;2022-10-03T14:52:23;95722.03;;;20.37;70.35
21838;BME280;11081;45.946;6.140;2022-10-03T14:54:55;95728.91;;;20.68;69.52
21838;BME280;11081;45.946;6.140;2022-10-03T14:57:30;95723.09;;;20.61;68.65
21838;BME280;11081;45.946;6.140;2022-10-03T15:00:27;95727.06;;;20.59;69.32
21838;BME280;11081;45.946;6.140;2022-10-03T15:03:19;95723.56;;;20.79;68.48
21838;BME280;11081;45.946;6.140;2022-10-03T15:06:01;95719.66;;;20.35;66.57
21838;BME280;11081;45.946;6.140;2022-10-03T15:08:34;95716.53;;;20.23;70.28
21838;BME280;11081;45.946;6.140;2022-10-03T15:11:06;95715.72;;;20.43;69.86
21838;BME280;11081;45.946;6.140;2022-10-03T15:13:40;95722.03;;;20.67;69.12
21838;BME280;11081;45.946;6.140;2022-10-03T15:16:15;95720.41;;;20.77;68.95
21838;BME280;11081;45.946;6.140;2022-10-03T15:18:50;95711.84;;;20.95;68.73
21838;BME280;11081;45.946;6.140;2022-10-03T15:21:20;95717.69;;;20.92;68.64
21838;BME280;11081;45.946;6.140;2022-10-03T15:23:53;95718.19;;;20.99;68.27
21838;BME280;11081;45.946;6.140;2022-10-03T15:26:22;95711.81;;;21.05;68.14
21838;BME280;11081;45.946;6.140;2022-10-03T15:28:55;95717.16;;;20.95;68.24
21838;BME280;11081;45.946;6.140;2022-10-03T15:31:33;95721.97;;;20.78;66.50
21838;BME280;11081;45.946;6.140;2022-10-03T15:34:04;95713.06;;;20.48;68.51
21838;BME280;11081;45.946;6.140;2022-10-03T15:36:36;95716.75;;;20.37;68.60
21838;BME280;11081;45.946;6.140;2022-10-03T15:39:07;95714.09;;;20.32;69.00
21838;BME280;11081;45.946;6.140;2022-10-03T15:41:49;95716.22;;;20.50;68.28
21838;BME280;11081;45.946;6.140;2022-10-03T15:44:21;95714.59;;;20.59;67.81
21838;BME280;11081;45.946;6.140;2022-10-03T15:46:54;95722.56;;;20.54;68.02
21838;BME280;11081;45.946;6.140;2022-10-03T15:49:31;95705.13;;;20.43;68.10
21838;BME280;11081;45.946;6.140;2022-10-03T15:52:11;95715.72;;;20.43;67.80
21838;BME280;11081;45.946;6.140;2022-10-03T15:54:44;95713.59;;;20.15;67.72
21838;BME280;11081;45.946;6.140;2022-10-03T15:57:17;95709.38;;;20.08;68.64
21838;BME280;11081;45.946;6.140;2022-10-03T15:59:50;95706.19;;;19.96;68.83
21838;BME280;11081;45.946;6.140;2022-10-03T16:02:36;95712.00;;;20.14;68.60
21838;BME280;11081;45.946;6.140;2022-10-03T16:05:15;95704.06;;;20.08;67.43
21838;BME280;11081;45.946;6.140;2022-10-03T16:07:53;95706.16;;;19.76;68.56
21838;BME280;11081;45.946;6.140;2022-10-03T16:10:26;95712.56;;;19.80;68.48
21838;BME280;11081;45.946;6.140;2022-10-03T16:12:57;95705.66;;;19.89;68.51
21838;BME280;11081;45.946;6.140;2022-10-03T16:15:41;95703.00;;;19.74;67.14
21838;BME280;11081;45.946;6.140;2022-10-03T16:21:43;95697.16;;;19.97;67.35